Time;durP1;ratioP1;P1;durP2;ratioP2;P2;SDS_P1;SDS_P2;PMS_P1;PMS_P2;Temp;Humidity;BMP_temperature;BMP_pressure;BME280_temperature;BME280_humidity;BME280_pressure;Samples;Min_cycle;Max_cycle;Signal;HPM_P1;HPM_P2
2023/04/01 00:01:16;;;;;;;5.97;3.00;;;;;;;10.57;100.00;98879.89;1434605;91;21488;-81
2023/04/01 00:06:05;;;;;;;9.93;3.53;;;;;;;10.56;100.00;98875.11;1512954;85;23099;-81
2023/04/01 00:08:32;;;;;;;8.20;3.03;;;;;;;10.52;100.00;98879.62;1439635;91;21393;-80
2023/04/01 00:10:58;;;;;;;9.20;3.93;;;;;;;10.47;100.00;98871.41;1449134;90;21531;-80
2023/04/01 00:13:26;;;;;;;8.03;3.03;;;;;;;10.44;100.00;98869.14;1431699;90;21547;-80
2023/04/01 00:15:53;;;;;;;17.33;4.23;;;;;;;10.44;100.00;98872.59;1434331;90;21472;-81
2023/04/01 00:18:20;;;;;;;14.33;4.47;;;;;;;10.41;100.00;98870.83;1428398;91;21570;-81
2023/04/01 00:20:48;;;;;;;8.37;4.67;;;;;;;10.35;100.00;98868.42;1433417;91;21488;-79
2023/04/01 00:23:16;;;;;;;14.83;5.57;;;;;;;10.31;100.00;98869.30;1437780;91;21479;-80
2023/04/01 00:25:42;;;;;;;10.20;5.20;;;;;;;10.28;100.00;98864.38;1437157;91;22486;-80
2023/04/01 00:28:08;;;;;;;17.00;7.63;;;;;;;10.28;100.00;98852.48;1428649;91;21960;-81
2023/04/01 00:30:36;;;;;;;12.03;4.97;;;;;;;10.28;100.00;98857.77;1424244;90;21967;-80
2023/04/01 00:33:03;;;;;;;13.50;5.77;;;;;;;10.28;100.00;98850.34;1443458;91;21426;-80
2023/04/01 00:35:30;;;;;;;12.67;4.33;;;;;;;10.29;100.00;98848.81;1436352;90;21619;-80
2023/04/01 00:37:56;;;;;;;15.30;5.33;;;;;;;10.30;100.00;98848.31;1442987;91;21464;-83
2023/04/01 00:40:30;;;;;;;10.77;4.23;;;;;;;10.28;100.00;98848.51;1436153;91;21435;-82
2023/04/01 00:42:57;;;;;;;11.67;3.30;;;;;;;10.29;100.00;98853.30;1436160;91;21485;-82
2023/04/01 00:45:35;;;;;;;9.87;3.27;;;;;;;10.27;100.00;98856.13;1435546;91;22558;-82
2023/04/01 00:48:09;;;;;;;11.00;4.77;;;;;;;10.27;100.00;98845.56;1445531;89;21419;-82
2023/04/01 00:50:39;;;;;;;5.90;3.40;;;;;;;10.26;100.00;98846.52;1429909;91;21548;-81
2023/04/01 00:53:07;;;;;;;6.73;3.90;;;;;;;10.27;100.00;98838.95;1447647;90;21472;-81
2023/04/01 00:55:37;;;;;;;9.30;3.53;;;;;;;10.27;100.00;98842.91;1437460;90;21562;-81
2023/04/01 00:58:07;;;;;;;8.63;4.55;;;;;;;10.28;100.00;98840.58;1447973;90;21465;-81
2023/04/01 01:00:35;;;;;;;11.93;4.03;;;;;;;10.29;100.00;98838.23;1436813;91;22421;-81
2023/04/01 01:03:02;;;;;;;14.13;3.00;;;;;;;10.30;100.00;98837.73;1445584;90;21608;-82
2023/04/01 01:05:54;;;;;;;8.90;4.20;;;;;;;10.30;100.00;98837.25;1431425;91;21495;-81
2023/04/01 01:08:56;;;;;;;9.83;3.53;;;;;;;10.33;100.00;98833.42;1462093;89;22479;-81
2023/04/01 01:11:44;;;;;;;13.70;3.37;;;;;;;10.33;100.00;98829.45;1451880;90;21520;-81
2023/04/01 01:14:36;;;;;;;9.20;3.10;;;;;;;10.32;100.00;98832.58;1455275;90;21553;-81
2023/04/01 01:17:34;;;;;;;9.73;4.07;;;;;;;10.30;100.00;98831.12;1442477;90;21641;-81
2023/04/01 01:20:27;;;;;;;9.33;3.90;;;;;;;10.27;100.00;98826.20;1443770;89;21500;-82
2023/04/01 01:23:18;;;;;;;10.07;3.60;;;;;;;10.24;100.00;98822.09;1459405;88;21420;-84
2023/04/01 01:26:09;;;;;;;12.37;3.90;;;;;;;10.23;100.00;98823.08;1450331;89;21578;-84
2023/04/01 01:28:56;;;;;;;7.70;4.13;;;;;;;10.23;100.00;98820.95;1433632;89;21848;-83
2023/04/01 01:31:57;;;;;;;12.20;4.10;;;;;;;10.20;100.00;98825.28;1429576;90;21747;-84
2023/04/01 01:34:35;;;;;;;10.75;4.25;;;;;;;10.20;100.00;98817.36;1454652;88;21442;-83
2023/04/01 01:37:10;;;;;;;16.10;4.87;;;;;;;10.18;100.00;98816.20;1432504;91;21629;-82
2023/04/01 01:39:37;;;;;;;9.77;3.80;;;;;;;10.19;100.00;98818.38;1426516;91;21601;-82
2023/04/01 01:42:08;;;;;;;12.13;4.43;;;;;;;10.18;100.00;98813.55;1435387;90;23452;-81
2023/04/01 01:44:37;;;;;;;9.38;2.90;;;;;;;10.17;100.00;98814.06;1456760;90;21486;-81
2023/04/01 01:47:04;;;;;;;6.23;3.53;;;;;;;10.19;100.00;98806.47;1447385;90;21382;-80
2023/04/01 01:49:33;;;;;;;7.67;4.03;;;;;;;10.19;100.00;98803.83;1452574;89;21545;-83
2023/04/01 01:51:59;;;;;;;12.20;7.67;;;;;;;10.20;100.00;98807.59;1441610;90;21397;-83
2023/04/01 01:54:26;;;;;;;25.17;4.43;;;;;;;10.19;100.00;98817.86;1449768;90;22542;-84
2023/04/01 01:56:58;;;;;;;10.03;4.30;;;;;;;10.13;100.00;98818.59;1469801;88;21603;-84
2023/04/01 01:59:26;;;;;;;11.93;4.53;;;;;;;10.06;100.00;98831.71;1486009;87;21656;-84
2023/04/01 02:01:55;;;;;;;4.90;3.37;;;;;;;10.03;100.00;98819.37;1477485;87;21493;-84
2023/04/01 02:04:23;;;;;;;8.77;3.37;;;;;;;10.01;100.00;98825.33;1472415;87;21574;-85
2023/04/01 02:07:04;;;;;;;7.73;3.33;;;;;;;9.99;100.00;98819.43;1481449;87;21580;-84
2023/04/01 02:09:31;;;;;;;7.58;3.12;;;;;;;9.98;100.00;98817.77;1483579;87;21514;-82
2023/04/01 02:12:08;;;;;;;8.70;3.63;;;;;;;9.97;100.00;98809.53;1484176;87;21559;-81
2023/04/01 02:14:45;;;;;;;6.93;4.00;;;;;;;9.95;100.00;98807.06;1466164;87;21515;-82
2023/04/01 02:17:16;;;;;;;7.47;3.70;;;;;;;9.94;100.00;98807.56;1467424;88;21508;-82
2023/04/01 02:19:52;;;;;;;;;;;;;;;9.97;100.00;98812.17;1455611;88;21500;-81
2023/04/01 02:22:26;;;;;;;8.37;3.90;;;;;;;9.94;100.00;98818.64;1468445;88;20379;-83
2023/04/01 02:25:03;;;;;;;9.90;7.00;;;;;;;9.91;100.00;98809.25;1439799;91;21465;-81
2023/04/01 02:27:31;;;;;;;6.03;4.40;;;;;;;9.85;100.00;98807.34;1438134;91;21467;-84
2023/04/01 02:29:58;;;;;;;8.10;3.60;;;;;;;9.80;100.00;98818.14;1445885;91;21571;-84
2023/04/01 02:32:26;;;;;;;5.43;2.93;;;;;;;9.75;100.00;98816.03;1460589;89;21481;-84
2023/04/01 02:34:53;;;;;;;5.67;2.77;;;;;;;9.73;100.00;98823.84;1445507;90;21620;-83
2023/04/01 02:37:20;;;;;;;7.23;2.93;;;;;;;9.72;100.00;98824.32;1440735;91;22457;-85
2023/04/01 02:39:46;;;;;;;5.27;2.67;;;;;;;9.68;100.00;98819.09;1436536;90;21539;-84
2023/04/01 02:42:14;;;;;;;6.80;2.47;;;;;;;9.66;100.00;98821.08;1445137;91;21599;-83
2023/04/01 02:44:40;;;;;;;8.20;2.80;;;;;;;9.65;100.00;98814.17;1449349;90;21465;-82
2023/04/01 02:47:06;;;;;;;5.47;3.23;;;;;;;9.62;100.00;98819.81;1427967;91;21495;-82
2023/04/01 02:49:33;;;;;;;5.77;2.87;;;;;;;9.64;100.00;98825.75;1444993;90;22523;-83
2023/04/01 02:51:59;;;;;;;6.93;3.60;;;;;;;9.62;100.00;98816.67;1440308;90;21607;-84
2023/04/01 02:54:25;;;;;;;17.03;3.83;;;;;;;9.62;100.00;98817.17;1442325;90;21467;-84
2023/04/01 02:56:51;;;;;;;6.80;3.10;;;;;;;9.60;100.00;98814.70;1451987;90;21504;-84
2023/04/01 02:59:18;;;;;;;8.53;3.40;;;;;;;9.58;100.00;98819.84;1448699;90;21581;-84
2023/04/01 03:01:44;;;;;;;6.07;2.80;;;;;;;9.55;100.00;98822.37;1442846;90;21408;-83
2023/04/01 03:04:10;;;;;;;5.23;2.93;;;;;;;9.57;100.00;98823.49;1439327;89;22324;-83
2023/04/01 03:06:37;;;;;;;4.73;2.73;;;;;;;9.55;100.00;98824.16;1441025;91;21681;-85
2023/04/01 03:09:03;;;;;;;5.93;4.00;;;;;;;9.54;100.00;98821.22;1428254;91;22368;-87
2023/04/01 03:11:31;;;;;;;5.60;3.27;;;;;;;9.53;100.00;98817.76;1434437;91;21483;-85
2023/04/01 03:13:57;;;;;;;7.20;3.10;;;;;;;9.52;100.00;98821.89;1436378;91;22325;-85
2023/04/01 03:16:23;;;;;;;5.77;3.07;;;;;;;9.52;100.00;98813.45;1438483;91;21532;-86
2023/04/01 03:18:52;;;;;;;5.87;3.13;;;;;;;9.51;100.00;98814.98;1430282;91;21414;-86
2023/04/01 03:21:21;;;;;;;6.07;3.27;;;;;;;9.51;100.00;98809.69;1429202;91;21393;-86
2023/04/01 03:23:47;;;;;;;4.63;3.10;;;;;;;9.52;100.00;98815.28;1432644;91;21378;-83
2023/04/01 03:26:14;;;;;;;4.63;2.40;;;;;;;9.52;100.00;98817.92;1457477;88;21463;-83
2023/04/01 03:28:40;;;;;;;7.60;3.23;;;;;;;9.48;100.00;98819.61;1458578;89;21478;-84
2023/04/01 03:31:08;;;;;;;7.57;3.70;;;;;;;9.47;100.00;98820.62;1457518;89;21640;-84
2023/04/01 03:33:34;;;;;;;6.13;2.90;;;;;;;9.47;100.00;98825.08;1464186;89;22271;-81
2023/04/01 03:36:00;;;;;;;7.37;3.40;;;;;;;9.43;100.00;98832.52;1458579;89;21427;-83
2023/04/01 03:38:27;;;;;;;6.80;3.70;;;;;;;9.42;100.00;98826.11;1448979;89;21478;-84
2023/04/01 03:40:53;;;;;;;8.40;3.50;;;;;;;9.41;100.00;98817.38;1473769;88;22313;-83
2023/04/01 03:43:20;;;;;;;7.23;3.73;;;;;;;9.40;100.00;98822.31;1482346;88;21397;-82
2023/04/01 03:45:50;;;;;;;8.00;2.93;;;;;;;9.40;100.00;98826.28;1485374;88;21478;-81
2023/04/01 03:48:17;;;;;;;11.05;4.03;;;;;;;9.40;100.00;98824.95;1485609;88;21478;-85
2023/04/01 03:50:44;;;;;;;8.17;3.03;;;;;;;9.38;100.00;98830.94;1489657;88;21390;-86
2023/04/01 03:53:11;;;;;;;5.47;3.30;;;;;;;9.37;100.00;98817.91;1468344;87;22393;-83
2023/04/01 03:55:38;;;;;;;5.23;3.00;;;;;;;9.34;100.00;98825.68;1473523;88;22625;-85
2023/04/01 03:58:05;;;;;;;3.03;2.53;;;;;;;9.34;100.00;98820.91;1467784;88;21536;-86
2023/04/01 04:00:33;;;;;;;4.47;2.87;;;;;;;9.33;100.00;98810.03;1463723;89;22336;-86
2023/04/01 04:03:00;;;;;;;4.53;2.33;;;;;;;9.30;100.00;98817.80;1460744;89;21582;-84
2023/04/01 04:05:27;;;;;;;5.40;2.83;;;;;;;9.26;100.00;98815.19;1463415;89;21515;-85
2023/04/01 04:07:54;;;;;;;5.13;2.83;;;;;;;9.26;100.00;98816.50;1474220;88;21522;-82
2023/04/01 04:10:22;;;;;;;4.50;3.37;;;;;;;9.22;100.00;98817.88;1462832;88;22305;-83
2023/04/01 04:12:50;;;;;;;5.43;2.87;;;;;;;9.21;100.00;98816.24;1461176;88;21448;-81
2023/04/01 04:15:17;;;;;;;10.87;4.37;;;;;;;9.18;100.00;98815.28;1485586;88;22504;-82
2023/04/01 04:17:45;;;;;;;6.27;4.37;;;;;;;9.12;100.00;98814.17;1475798;87;21470;-81
2023/04/01 04:20:12;;;;;;;6.63;4.73;;;;;;;9.06;100.00;98819.31;1489278;87;21619;-82
2023/04/01 04:22:38;;;;;;;6.70;4.17;;;;;;;8.99;100.00;98820.02;1481027;87;21477;-80
2023/04/01 04:25:05;;;;;;;5.90;3.63;;;;;;;8.95;100.00;98816.11;1471593;88;21648;-82
2023/04/01 04:27:32;;;;;;;8.43;3.53;;;;;;;8.92;100.00;98823.06;1487968;87;21470;-82
2023/04/01 04:29:59;;;;;;;3.23;2.83;;;;;;;8.86;100.00;98825.09;1486864;88;21485;-82
2023/04/01 04:32:25;;;;;;;5.77;3.17;;;;;;;8.84;100.00;98821.80;1484903;87;21426;-80
2023/04/01 04:34:51;;;;;;;7.17;2.70;;;;;;;8.82;100.00;98813.23;1487789;88;22395;-82
2023/04/01 04:37:18;;;;;;;4.03;2.73;;;;;;;8.79;100.00;98820.17;1488368;88;21456;-81
2023/04/01 04:39:44;;;;;;;7.00;3.43;;;;;;;8.76;100.00;98817.89;1476249;88;21626;-83
2023/04/01 04:42:10;;;;;;;3.53;2.47;;;;;;;8.75;100.00;98828.13;1493140;87;21448;-82
2023/04/01 04:44:36;;;;;;;6.43;3.70;;;;;;;8.73;100.00;98829.61;1484035;87;21440;-82
2023/04/01 04:47:03;;;;;;;3.50;2.17;;;;;;;8.73;100.00;98825.66;1485487;87;21411;-82
2023/04/01 04:49:29;;;;;;;5.70;3.00;;;;;;;8.73;100.00;98827.47;1490273;88;21554;-84
2023/04/01 04:51:56;;;;;;;2.93;2.13;;;;;;;8.75;100.00;98830.77;1491650;87;21449;-83
2023/04/01 04:54:22;;;;;;;4.83;2.70;;;;;;;8.72;100.00;98826.66;1485404;88;21507;-84
2023/04/01 04:56:48;;;;;;;3.97;2.63;;;;;;;8.73;100.00;98830.11;1483330;87;21470;-85
2023/04/01 04:59:14;;;;;;;2.93;2.20;;;;;;;8.68;100.00;98836.40;1487456;87;21339;-82
2023/04/01 05:01:40;;;;;;;7.30;2.40;;;;;;;8.69;100.00;98845.94;1488044;87;21388;-82
2023/04/01 05:04:06;;;;;;;5.57;3.10;;;;;;;8.68;100.00;98846.95;1462678;88;22462;-82
2023/04/01 05:06:32;;;;;;;9.80;3.33;;;;;;;8.70;100.00;98847.10;1481789;88;21531;-82
2023/04/01 05:09:00;;;;;;;4.93;3.30;;;;;;;8.72;100.00;98852.22;1468339;88;21575;-82
2023/04/01 05:11:27;;;;;;;5.20;3.93;;;;;;;8.71;100.00;98842.64;1478907;88;21641;-83
2023/04/01 05:13:53;;;;;;;4.47;3.73;;;;;;;8.70;100.00;98844.46;1477647;87;21404;-84
2023/04/01 05:16:21;;;;;;;5.13;3.10;;;;;;;8.70;100.00;98845.78;1478226;88;22477;-83
2023/04/01 05:18:47;;;;;;;4.30;3.00;;;;;;;8.75;100.00;98846.09;1468915;87;21552;-82
2023/04/01 05:21:15;;;;;;;3.93;2.63;;;;;;;8.80;100.00;98850.82;1452774;87;21553;-83
2023/04/01 05:23:42;;;;;;;5.77;3.33;;;;;;;8.85;100.00;98845.03;1451134;90;21390;-82
2023/04/01 05:26:13;;;;;;;6.03;3.80;;;;;;;8.90;100.00;98834.28;1450384;90;21615;-83
2023/04/01 05:28:40;;;;;;;5.67;2.67;;;;;;;8.98;100.00;98838.19;1452036;90;22343;-81
2023/04/01 05:31:08;;;;;;;5.93;2.90;;;;;;;9.07;100.00;98828.89;1456525;90;22053;-83
2023/04/01 05:33:34;;;;;;;6.47;3.60;;;;;;;9.14;100.00;98836.41;1453538;90;21530;-84
2023/04/01 05:36:12;;;;;;;8.27;4.07;;;;;;;9.23;100.00;98845.90;1457141;89;22444;-83
2023/04/01 05:38:39;;;;;;;6.93;4.00;;;;;;;9.28;100.00;98852.80;1462422;88;21471;-82
2023/04/01 05:41:05;;;;;;;12.67;4.83;;;;;;;9.32;100.00;98848.82;1480077;88;22350;-82
2023/04/01 05:43:31;;;;;;;5.83;3.83;;;;;;;9.41;100.00;98842.97;1470239;87;21604;-82
2023/04/01 05:45:58;;;;;;;8.37;5.10;;;;;;;9.45;100.00;98847.70;1476420;88;22160;-81
2023/04/01 05:48:24;;;;;;;11.03;5.70;;;;;;;9.47;100.00;98844.39;1469891;87;21338;-82
2023/04/01 05:50:50;;;;;;;8.47;5.27;;;;;;;9.53;100.00;98844.17;1462703;88;21663;-81
2023/04/01 05:53:16;;;;;;;5.23;3.37;;;;;;;9.56;100.00;98854.38;1481977;87;22424;-82
2023/04/01 05:55:43;;;;;;;4.30;3.30;;;;;;;9.56;100.00;98840.35;1474899;88;21596;-83
2023/04/01 05:58:09;;;;;;;2.70;2.50;;;;;;;9.62;100.00;98843.59;1470150;88;21427;-82
2023/04/01 06:00:35;;;;;;;7.70;3.17;;;;;;;9.72;100.00;98842.81;1474899;87;21634;-83
2023/04/01 06:03:02;;;;;;;5.63;2.97;;;;;;;9.81;100.00;98845.72;1461560;88;21538;-84
2023/04/01 06:05:33;;;;;;;4.73;3.00;;;;;;;9.85;100.00;98846.98;1476005;87;21589;-85
2023/04/01 06:08:11;;;;;;;3.53;2.63;;;;;;;9.87;100.00;98844.98;1473746;87;21516;-85
2023/04/01 06:10:59;;;;;;;4.27;3.07;;;;;;;9.88;100.00;98838.69;1467161;88;21405;-85
2023/04/01 06:14:05;;;;;;;8.03;3.93;;;;;;;9.92;100.00;98851.03;1472890;88;22335;-89
2023/04/01 06:17:02;;;;;;;7.10;3.93;;;;;;;9.94;100.00;98839.28;1468208;87;21434;-84
2023/04/01 06:19:44;;;;;;;6.13;3.23;;;;;;;10.03;100.00;98850.58;1470403;87;21412;-83
2023/04/01 06:23:07;;;;;;;6.37;3.17;;;;;;;10.11;99.88;98843.88;1482895;87;21486;-87
2023/04/01 06:26:00;;;;;;;5.93;2.70;;;;;;;10.17;100.00;98838.37;1470996;87;21428;-78
2023/04/01 06:28:59;;;;;;;3.70;2.73;;;;;;;10.13;97.52;98838.42;1459183;88;21936;-77
2023/04/01 06:31:46;;;;;;;5.30;3.10;;;;;;;10.17;97.16;98837.05;1464181;88;22255;-77
2023/04/01 06:34:39;;;;;;;8.23;3.40;;;;;;;10.23;97.46;98840.78;1467109;88;22359;-78
2023/04/01 06:38:07;;;;;;;5.30;3.27;;;;;;;10.30;97.07;98830.64;1447686;88;21397;-78
2023/04/01 06:41:02;;;;;;;6.63;3.70;;;;;;;10.37;95.51;98832.85;1457251;90;21398;-78
2023/04/01 06:43:45;;;;;;;17.10;8.10;;;;;;;10.43;95.24;98833.94;1458015;88;21456;-78
2023/04/01 06:46:47;;;;;;;4.50;2.73;;;;;;;10.48;95.24;98840.01;1447590;88;21559;-77
2023/04/01 06:49:28;;;;;;;7.03;3.90;;;;;;;10.51;94.96;98833.84;1464216;88;21361;-77
2023/04/01 06:52:17;;;;;;;5.20;3.05;;;;;;;10.54;95.09;98834.78;1453302;87;22467;-87
2023/04/01 06:54:50;;;;;;;5.40;3.20;;;;;;;10.57;93.96;98830.95;1460343;88;21311;-87
2023/04/01 06:57:41;;;;;;;5.80;2.90;;;;;;;10.65;94.09;98828.70;1456823;88;21515;-88
2023/04/01 07:00:28;;;;;;;6.28;2.83;;;;;;;10.72;93.57;98832.23;1462551;88;21384;-88
2023/04/01 07:03:12;;;;;;;6.57;3.90;;;;;;;10.80;93.30;98830.28;1465121;88;21473;-89
2023/04/01 07:05:39;;;;;;;7.60;4.20;;;;;;;10.95;93.14;98821.47;1465419;87;21538;-87
2023/04/01 07:08:14;;;;;;;5.53;3.60;;;;;;;11.10;92.76;98824.86;1472478;87;21500;-89
2023/04/01 07:11:01;;;;;;;5.47;3.50;;;;;;;11.25;92.34;98823.48;1476402;87;21449;-86
2023/04/01 07:13:33;;;;;;;8.77;3.83;;;;;;;11.40;91.25;98827.37;1471053;87;22357;-87
2023/04/01 07:16:26;;;;;;;4.73;3.10;;;;;;;11.51;90.42;98810.95;1468043;87;21625;-88
2023/04/01 07:19:03;;;;;;;7.07;4.20;;;;;;;11.58;88.66;98811.80;1449507;87;21663;-88
2023/04/01 07:21:47;;;;;;;5.43;4.30;;;;;;;11.68;87.45;98816.27;1439080;90;21472;-88
2023/04/01 07:24:26;;;;;;;5.23;3.80;;;;;;;11.79;87.51;98814.07;1450189;89;21442;-86
2023/04/01 07:26:56;;;;;;;4.07;3.07;;;;;;;11.86;85.66;98822.93;1452659;89;21500;-88
2023/04/01 07:29:24;;;;;;;10.63;3.67;;;;;;;11.95;86.15;98821.75;1448096;88;21666;-88
2023/04/01 07:32:37;;;;;;;4.23;3.27;;;;;;;12.11;85.89;98818.79;1454427;89;22323;-84
2023/04/01 07:35:40;;;;;;;5.37;3.43;;;;;;;12.24;83.74;98825.16;1442599;89;21472;-88
2023/04/01 07:38:52;;;;;;;4.47;3.27;;;;;;;12.39;83.95;98826.64;1447736;89;21473;-88
2023/04/01 07:41:46;;;;;;;8.90;4.40;;;;;;;12.47;83.87;98823.01;1452348;90;21910;-86
2023/04/01 07:44:18;;;;;;;3.60;3.00;;;;;;;12.47;82.89;98825.66;1456552;89;21422;-88
2023/04/01 07:47:15;;;;;;;5.43;3.10;;;;;;;12.50;80.99;98819.95;1436980;90;21494;-87
2023/04/01 07:49:49;;;;;;;5.10;3.40;;;;;;;12.68;82.51;98822.55;1454672;89;21635;-88
2023/04/01 07:53:04;;;;;;;4.80;3.13;;;;;;;12.86;81.80;98822.82;1453823;90;22411;-84
2023/04/01 07:55:41;;;;;;;5.87;3.70;;;;;;;13.06;81.20;98822.34;1447488;90;21485;-88
2023/04/01 07:58:34;;;;;;;4.37;3.20;;;;;;;13.22;80.01;98829.59;1446743;90;21457;-87
2023/04/01 08:01:29;;;;;;;6.27;3.77;;;;;;;13.33;77.19;98822.38;1442252;90;21486;-87
2023/04/01 08:04:40;;;;;;;3.37;3.07;;;;;;;13.42;77.72;98821.14;1441248;90;21655;-87
2023/04/01 08:07:38;;;;;;;4.50;3.15;;;;;;;13.40;75.68;98821.04;1445521;87;21560;-87
2023/04/01 08:10:22;;;;;;;7.57;3.30;;;;;;;13.60;76.07;98815.71;1468815;88;22491;-82
2023/04/01 08:13:17;;;;;;;6.03;3.60;;;;;;;13.72;76.81;98810.06;1471150;87;21479;-88
2023/04/01 08:16:18;;;;;;;6.13;3.80;;;;;;;13.82;74.67;98817.12;1457907;90;21618;-87
2023/04/01 08:19:04;;;;;;;5.87;3.80;;;;;;;13.98;74.18;98819.83;1452038;88;21611;-86
2023/04/01 08:21:42;;;;;;;4.60;2.83;;;;;;;14.02;73.39;98815.74;1454517;90;22471;-88
2023/04/01 08:24:44;;;;;;;5.60;3.80;;;;;;;14.08;73.41;98824.21;1459803;89;21493;-86
2023/04/01 08:27:39;;;;;;;6.47;3.73;;;;;;;14.12;71.55;98828.08;1448948;90;21391;-83
2023/04/01 08:30:38;;;;;;;6.20;3.00;;;;;;;14.10;71.08;98823.50;1454779;89;21701;-86
2023/04/01 08:33:21;;;;;;;4.83;4.07;;;;;;;14.14;70.32;98819.90;1440181;90;21494;-87
2023/04/01 08:36:05;;;;;;;6.10;3.90;;;;;;;14.19;70.97;98817.43;1462842;89;21634;-85
2023/04/01 08:38:37;;;;;;;6.37;3.77;;;;;;;14.17;70.95;98819.47;1476099;88;21566;-87
2023/04/01 08:41:32;;;;;;;4.50;3.53;;;;;;;14.26;70.39;98823.53;1470928;87;21566;-84
2023/04/01 08:44:26;;;;;;;7.70;3.57;;;;;;;14.21;69.58;98818.86;1468063;88;21685;-87
2023/04/01 08:47:10;;;;;;;6.53;3.73;;;;;;;14.24;69.65;98820.25;1470284;88;21470;-86
2023/04/01 08:49:50;;;;;;;6.37;4.40;;;;;;;14.29;70.40;98817.78;1479476;87;21420;-87
2023/04/01 08:52:37;;;;;;;5.65;3.17;;;;;;;14.28;69.87;98818.02;1462023;87;21471;-86
2023/04/01 08:55:23;;;;;;;7.90;3.10;;;;;;;14.29;69.91;98825.77;1470044;88;22366;-87
2023/04/01 08:58:29;;;;;;;3.77;2.90;;;;;;;14.59;69.75;98823.43;1476984;88;22440;-86
2023/04/01 09:01:03;;;;;;;5.83;3.07;;;;;;;14.88;66.60;98822.03;1471917;88;21449;-84
2023/04/01 09:04:05;;;;;;;5.53;3.43;;;;;;;15.06;66.81;98823.16;1479398;87;21725;-86
2023/04/01 09:06:57;;;;;;;6.10;3.43;;;;;;;15.16;66.38;98816.81;1469887;87;21448;-89
2023/04/01 09:09:50;;;;;;;6.73;3.13;;;;;;;15.16;63.79;98822.14;1477365;87;21559;-88
2023/04/01 09:12:45;;;;;;;8.70;3.57;;;;;;;15.17;66.02;98821.13;1453842;87;21624;-87
2023/04/01 09:15:51;;;;;;;6.40;3.83;;;;;;;15.12;65.65;98822.28;1465659;88;21448;-88
2023/04/01 09:18:35;;;;;;;5.47;3.70;;;;;;;15.05;66.30;98826.86;1489567;88;21366;-89
2023/04/01 09:21:43;;;;;;;8.20;3.47;;;;;;;14.87;65.55;98821.74;1484330;87;21456;-88
2023/04/01 09:24:54;;;;;;;4.63;3.17;;;;;;;14.75;65.10;98821.30;1480876;87;21457;-86
2023/04/01 09:27:28;;;;;;;3.30;3.00;;;;;;;14.56;65.31;98815.88;1479991;88;21462;-87
2023/04/01 09:30:12;;;;;;;7.63;3.33;;;;;;;14.44;65.41;98814.36;1487801;87;21440;-86
2023/04/01 09:33:05;;;;;;;5.33;3.17;;;;;;;14.39;65.86;98812.03;1484091;87;21536;-86
2023/04/01 09:35:50;;;;;;;5.73;3.30;;;;;;;14.20;65.64;98811.07;1485763;87;21536;-90
2023/04/01 09:38:49;;;;;;;4.87;3.10;;;;;;;14.30;66.33;98818.11;1489883;87;21522;-90
2023/04/01 09:41:32;;;;;;;4.60;3.37;;;;;;;14.32;66.31;98810.71;1447614;88;21411;-89
2023/04/01 09:44:06;;;;;;;5.27;3.37;;;;;;;14.41;66.17;98806.80;1467980;88;22778;-86
2023/04/01 09:47:05;;;;;;;11.10;4.20;;;;;;;14.72;66.36;98809.22;1485574;87;21621;-89
2023/04/01 09:49:44;;;;;;;4.87;3.60;;;;;;;14.87;66.16;98805.77;1482387;87;21685;-84
2023/04/01 09:52:25;;;;;;;3.83;3.23;;;;;;;15.11;65.35;98807.34;1488166;87;21396;-81
2023/04/01 09:55:14;;;;;;;7.33;3.93;;;;;;;15.43;65.70;98813.95;1493182;87;21485;-82
2023/04/01 09:58:08;;;;;;;5.37;3.00;;;;;;;15.64;64.03;98802.88;1461859;87;22475;-83
2023/04/01 10:00:43;;;;;;;5.60;3.90;;;;;;;15.73;63.74;98800.25;1481220;88;21455;-84
2023/04/01 10:03:35;;;;;;;5.30;3.83;;;;;;;15.70;62.63;98799.36;1480616;88;22403;-85
2023/04/01 10:06:39;;;;;;;5.53;3.50;;;;;;;15.69;62.16;98799.07;1485010;87;21477;-83
2023/04/01 10:09:37;;;;;;;5.27;3.40;;;;;;;15.72;62.71;98806.63;1466300;88;21507;-85
2023/04/01 10:12:24;;;;;;;6.53;3.43;;;;;;;15.82;63.57;98793.30;1473047;88;21470;-86
2023/04/01 10:15:11;;;;;;;4.80;2.83;;;;;;;15.78;61.59;98795.08;1475687;88;22506;-86
2023/04/01 10:17:52;;;;;;;4.47;3.07;;;;;;;15.77;61.96;98793.45;1485133;88;21633;-85
2023/04/01 10:20:50;;;;;;;5.65;3.65;;;;;;;15.76;61.83;98793.14;1464126;88;21493;-85
2023/04/01 10:24:02;;;;;;;8.47;3.70;;;;;;;15.77;61.89;98791.31;1467872;89;21441;-84
2023/04/01 10:27:01;;;;;;;3.77;2.77;;;;;;;15.75;61.29;98790.19;1460447;88;22465;-83
2023/04/01 10:30:17;;;;;;;6.63;2.97;;;;;;;15.76;60.82;98791.80;1457095;88;21470;-85
2023/04/01 10:33:18;;;;;;;3.93;3.10;;;;;;;15.72;60.49;98787.96;1430327;90;22352;-83
2023/04/01 10:35:59;;;;;;;4.87;3.03;;;;;;;15.72;60.88;98791.95;1449892;90;21464;-83
2023/04/01 10:38:58;;;;;;;5.83;3.25;;;;;;;15.34;58.04;98802.23;1428294;91;22647;-83
2023/04/01 10:41:53;;;;;;;7.87;3.43;;;;;;;15.44;60.43;98802.25;1463684;88;21589;-83
2023/04/01 10:44:52;;;;;;;4.87;2.90;;;;;;;15.30;61.16;98804.20;1431445;91;22538;-83
2023/04/01 10:47:56;;;;;;;4.77;2.70;;;;;;;15.18;61.11;98802.76;1433372;91;21466;-84
2023/04/01 10:50:44;;;;;;;5.33;2.80;;;;;;;15.16;61.45;98800.82;1463251;88;22351;-83
2023/04/01 10:53:34;;;;;;;4.87;2.73;;;;;;;15.10;61.97;98798.53;1442488;89;22469;-83
2023/04/01 10:56:25;;;;;;;8.05;3.47;;;;;;;14.84;61.64;98806.16;1433772;91;21593;-83
2023/04/01 10:59:46;;;;;;;5.43;3.20;;;;;;;14.78;63.13;98805.70;1458007;88;21671;-82
2023/04/01 11:02:38;;;;;;;7.37;3.50;;;;;;;14.81;64.09;98803.13;1459929;89;22396;-82
2023/04/01 11:05:35;;;;;;;7.80;3.97;;;;;;;14.59;64.36;98798.14;1447786;89;21508;-83
2023/04/01 11:08:26;;;;;;;6.30;3.43;;;;;;;14.54;64.43;98793.96;1457505;89;21610;-84
2023/04/01 11:11:32;;;;;;;7.93;4.40;;;;;;;14.59;64.24;98793.33;1453016;89;21636;-84
2023/04/01 11:14:25;;;;;;;6.10;3.87;;;;;;;14.76;64.58;98799.79;1444118;88;21515;-89
2023/04/01 11:17:35;;;;;;;5.17;3.37;;;;;;;14.96;64.19;98799.66;1461335;89;21649;-89
2023/04/01 11:20:40;;;;;;;5.00;3.00;;;;;;;14.88;61.71;98795.40;1469480;88;22446;-88
2023/04/01 11:23:31;;;;;;;5.77;3.33;;;;;;;15.19;63.77;98793.75;1457388;89;21478;-88
2023/04/01 11:26:22;;;;;;;5.50;3.40;;;;;;;15.30;62.13;98789.55;1454535;89;22011;-88
2023/04/01 11:29:29;;;;;;;8.27;3.77;;;;;;;15.48;59.81;98786.12;1454243;88;22416;-89
2023/04/01 11:32:33;;;;;;;5.17;3.10;;;;;;;15.90;62.03;98782.34;1454118;88;21470;-90
2023/04/01 11:35:14;;;;;;;4.87;3.30;;;;;;;16.35;60.75;98784.69;1448231;89;21523;-87
2023/04/01 11:38:16;;;;;;;5.87;3.30;;;;;;;16.62;59.36;98781.13;1449528;89;21492;-88
2023/04/01 11:41:09;;;;;;;4.17;2.83;;;;;;;16.73;58.77;98779.55;1429585;91;21518;-88
2023/04/01 11:44:06;;;;;;;3.87;2.90;;;;;;;16.80;56.36;98777.62;1426909;91;21561;-89
2023/04/01 11:46:46;;;;;;;7.70;3.10;;;;;;;16.85;57.80;98785.77;1418376;91;21466;-88
2023/04/01 11:49:48;;;;;;;5.87;3.02;;;;;;;16.62;57.64;98779.27;1468403;88;21552;-84
2023/04/01 11:52:41;;;;;;;4.07;3.30;;;;;;;16.64;57.74;98783.07;1469319;87;21398;-89
2023/04/01 11:55:44;;;;;;;4.27;2.80;;;;;;;16.40;55.09;98778.13;1478787;88;21397;-88
2023/04/01 11:58:48;;;;;;;8.27;5.10;;;;;;;16.23;56.89;98782.77;1491381;87;21609;-87
2023/04/01 12:01:36;;;;;;;7.53;3.23;;;;;;;16.15;56.67;98780.41;1477349;87;21581;-89
2023/04/01 12:04:39;;;;;;;7.40;3.73;;;;;;;16.18;58.08;98778.62;1447200;90;21516;-90
2023/04/01 12:07:31;;;;;;;5.10;3.20;;;;;;;16.15;58.02;98783.08;1469203;87;21507;-87
2023/04/01 12:10:21;;;;;;;6.60;2.63;;;;;;;16.12;58.09;98782.19;1454668;89;22463;-87
2023/04/01 12:13:27;;;;;;;4.42;2.80;;;;;;;16.01;58.50;98780.27;1457529;89;22300;-89
2023/04/01 12:16:23;;;;;;;6.77;3.40;;;;;;;15.88;58.77;98785.24;1449747;90;21413;-85
2023/04/01 12:19:19;;;;;;;8.10;4.00;;;;;;;15.86;59.16;98778.50;1466494;88;21530;-89
2023/04/01 12:21:53;;;;;;;4.80;2.47;;;;;;;15.76;59.10;98779.80;1462352;87;21612;-89
2023/04/01 12:24:51;;;;;;;4.17;2.77;;;;;;;15.75;59.64;98779.52;1473271;87;21508;-90
2023/04/01 12:28:01;;;;;;;3.83;2.87;;;;;;;15.77;59.10;98777.97;1476215;87;22277;-90
2023/04/01 12:30:44;;;;;;;4.97;2.73;;;;;;;15.78;58.94;98777.73;1477166;88;21493;-88
2023/04/01 12:33:51;;;;;;;4.17;2.57;;;;;;;15.83;58.74;98778.42;1473577;88;22167;-89
2023/04/01 12:36:48;;;;;;;4.63;2.37;;;;;;;15.91;58.81;98771.45;1474455;87;21508;-89